sensor_id;sensor_type;location;lat;lon;timestamp;pressure;altitude;pressure_sealevel;temperature;humidity
28000;BME280;15328;50.860;10.562;2023-07-02T00:03:12;95667.81;;;18.26;67.94
28000;BME280;15328;50.860;10.562;2023-07-02T00:08:13;95663.69;;;18.33;68.13
28000;BME280;15328;50.860;10.562;2023-07-02T00:13:14;95665.28;;;18.34;67.92
28000;BME280;15328;50.860;10.562;2023-07-02T00:18:15;95658.84;;;18.35;67.96
28000;BME280;15328;50.860;10.562;2023-07-02T00:23:16;95654.78;;;18.38;67.69
28000;BME280;15328;50.860;10.562;2023-07-02T00:28:16;95659.66;;;18.31;67.48
28000;BME280;15328;50.860;10.562;2023-07-02T00:33:17;95668.25;;;18.33;67.52
28000;BME280;15328;50.860;10.562;2023-07-02T00:38:18;95666.91;;;18.35;67.64
28000;BME280;15328;50.860;10.562;2023-07-02T00:43:18;95667.94;;;18.39;67.76
28000;BME280;15328;50.860;10.562;2023-07-02T00:48:19;95674.16;;;18.35;68.47
28000;BME280;15328;50.860;10.562;2023-07-02T00:53:19;95674.13;;;18.40;68.47
28000;BME280;15328;50.860;10.562;2023-07-02T00:58:20;95674.22;;;18.30;68.40
28000;BME280;15328;50.860;10.562;2023-07-02T01:03:21;95676.69;;;18.26;68.41
28000;BME280;15328;50.860;10.562;2023-07-02T01:08:21;95678.69;;;18.15;68.60
28000;BME280;15328;50.860;10.562;2023-07-02T01:13:23;95659.59;;;18.12;68.51
28000;BME280;15328;50.860;10.562;2023-07-02T01:18:24;95660.69;;;18.11;68.76
28000;BME280;15328;50.860;10.562;2023-07-02T01:23:25;95661.81;;;18.05;68.25
28000;BME280;15328;50.860;10.562;2023-07-02T01:28:34;95658.53;;;18.08;68.14
28000;BME280;15328;50.860;10.562;2023-07-02T01:33:35;95668.50;;;18.07;68.05
28000;BME280;15328;50.860;10.562;2023-07-02T01:38:35;95660.19;;;18.09;67.98
28000;BME280;15328;50.860;10.562;2023-07-02T01:43:36;95673.13;;;18.02;68.15
28000;BME280;15328;50.860;10.562;2023-07-02T01:48:36;95677.44;;;18.03;67.89
28000;BME280;15328;50.860;10.562;2023-07-02T01:53:36;95678.56;;;17.97;67.51
28000;BME280;15328;50.860;10.562;2023-07-02T01:58:37;95685.59;;;17.92;67.82
28000;BME280;15328;50.860;10.562;2023-07-02T02:03:37;95686.75;;;17.86;67.54
28000;BME280;15328;50.860;10.562;2023-07-02T02:08:37;95697.78;;;17.80;67.13
28000;BME280;15328;50.860;10.562;2023-07-02T02:13:38;95696.47;;;17.82;67.51
28000;BME280;15328;50.860;10.562;2023-07-02T02:18:38;95707.50;;;17.81;67.42
28000;BME280;15328;50.860;10.562;2023-07-02T02:23:38;95708.31;;;17.76;67.50
28000;BME280;15328;50.860;10.562;2023-07-02T02:28:39;95719.59;;;17.78;67.74
28000;BME280;15328;50.860;10.562;2023-07-02T02:33:39;95712.94;;;17.71;67.80
28000;BME280;15328;50.860;10.562;2023-07-02T02:38:40;95716.94;;;17.73;67.70
28000;BME280;15328;50.860;10.562;2023-07-02T02:43:43;95722.59;;;17.72;67.71
28000;BME280;15328;50.860;10.562;2023-07-02T02:48:44;95723.94;;;17.74;67.40
28000;BME280;15328;50.860;10.562;2023-07-02T02:53:44;95722.63;;;17.67;67.22
28000;BME280;15328;50.860;10.562;2023-07-02T02:58:44;95721.56;;;17.68;66.39
28000;BME280;15328;50.860;10.562;2023-07-02T03:03:45;95722.38;;;17.63;66.82
28000;BME280;15328;50.860;10.562;2023-07-02T03:08:45;95724.25;;;17.63;66.52
28000;BME280;15328;50.860;10.562;2023-07-02T03:13:45;95723.75;;;17.60;66.51
28000;BME280;15328;50.860;10.562;2023-07-02T03:18:46;95724.31;;;17.57;65.84
28000;BME280;15328;50.860;10.562;2023-07-02T03:23:46;95727.59;;;17.44;65.21
28000;BME280;15328;50.860;10.562;2023-07-02T03:28:47;95737.00;;;17.42;65.38
28000;BME280;15328;50.860;10.562;2023-07-02T03:33:47;95738.38;;;17.39;66.44
28000;BME280;15328;50.860;10.562;2023-07-02T03:38:47;95732.75;;;17.36;65.10
28000;BME280;15328;50.860;10.562;2023-07-02T03:43:48;95735.75;;;17.29;64.97
28000;BME280;15328;50.860;10.562;2023-07-02T03:48:48;95734.41;;;17.32;64.77
28000;BME280;15328;50.860;10.562;2023-07-02T03:53:48;95737.13;;;17.26;64.31
28000;BME280;15328;50.860;10.562;2023-07-02T03:58:49;95734.16;;;17.23;64.60
28000;BME280;15328;50.860;10.562;2023-07-02T04:03:52;95741.41;;;17.22;64.21
28000;BME280;15328;50.860;10.562;2023-07-02T04:08:52;95739.25;;;17.24;63.87
28000;BME280;15328;50.860;10.562;2023-07-02T04:13:53;95747.09;;;17.16;63.73
28000;BME280;15328;50.860;10.562;2023-07-02T04:18:53;95755.16;;;17.16;63.25
28000;BME280;15328;50.860;10.562;2023-07-02T04:23:53;95770.75;;;17.14;63.87
28000;BME280;15328;50.860;10.562;2023-07-02T04:28:54;95770.47;;;17.15;63.98
28000;BME280;15328;50.860;10.562;2023-07-02T04:33:56;95776.13;;;17.14;63.48
28000;BME280;15328;50.860;10.562;2023-07-02T04:38:57;95772.94;;;17.07;63.10
28000;BME280;15328;50.860;10.562;2023-07-02T04:43:57;95770.25;;;17.02;63.17
28000;BME280;15328;50.860;10.562;2023-07-02T04:48:57;95777.50;;;16.96;63.13
28000;BME280;15328;50.860;10.562;2023-07-02T04:53:58;95780.19;;;16.96;63.02
28000;BME280;15328;50.860;10.562;2023-07-02T04:58:59;95780.19;;;16.96;62.84
28000;BME280;15328;50.860;10.562;2023-07-02T05:03:59;95786.09;;;16.98;62.55
28000;BME280;15328;50.860;10.562;2023-07-02T05:08:59;95786.13;;;16.93;62.47
28000;BME280;15328;50.860;10.562;2023-07-02T05:14:00;95785.91;;;16.79;63.00
28000;BME280;15328;50.860;10.562;2023-07-02T05:19:00;95783.50;;;16.78;62.42
28000;BME280;15328;50.860;10.562;2023-07-02T05:24:00;95774.38;;;16.74;62.54
28000;BME280;15328;50.860;10.562;2023-07-02T05:29:01;95773.53;;;16.83;62.35
28000;BME280;15328;50.860;10.562;2023-07-02T05:34:02;95775.09;;;16.94;62.64
28000;BME280;15328;50.860;10.562;2023-07-02T05:39:02;95770.81;;;16.98;62.88
28000;BME280;15328;50.860;10.562;2023-07-02T05:44:03;95771.00;;;17.17;63.05
28000;BME280;15328;50.860;10.562;2023-07-02T05:49:03;95783.06;;;17.30;63.30
28000;BME280;15328;50.860;10.562;2023-07-02T05:54:03;95772.81;;;17.32;63.86
28000;BME280;15328;50.860;10.562;2023-07-02T05:59:04;95782.69;;;17.47;63.15
28000;BME280;15328;50.860;10.562;2023-07-02T06:04:04;95788.59;;;17.54;62.62
28000;BME280;15328;50.860;10.562;2023-07-02T06:09:04;95786.38;;;17.61;61.26
28000;BME280;15328;50.860;10.562;2023-07-02T06:14:05;95786.63;;;17.70;61.54
28000;BME280;15328;50.860;10.562;2023-07-02T06:19:05;95788.72;;;17.83;60.60
28000;BME280;15328;50.860;10.562;2023-07-02T06:24:06;95794.88;;;17.88;60.45
28000;BME280;15328;50.860;10.562;2023-07-02T06:29:06;95816.59;;;17.97;60.60
28000;BME280;15328;50.860;10.562;2023-07-02T06:34:06;95819.66;;;18.19;60.00
28000;BME280;15328;50.860;10.562;2023-07-02T06:39:08;95819.81;;;18.33;58.95
28000;BME280;15328;50.860;10.562;2023-07-02T06:44:09;95835.25;;;18.57;59.14
28000;BME280;15328;50.860;10.562;2023-07-02T06:49:10;95845.13;;;18.71;57.62
28000;BME280;15328;50.860;10.562;2023-07-02T06:54:11;95862.22;;;18.91;57.55
28000;BME280;15328;50.860;10.562;2023-07-02T06:59:19;95858.09;;;18.98;56.70
28000;BME280;15328;50.860;10.562;2023-07-02T07:04:20;95879.47;;;19.13;56.03
28000;BME280;15328;50.860;10.562;2023-07-02T07:09:21;95874.06;;;19.42;55.60
28000;BME280;15328;50.860;10.562;2023-07-02T07:14:21;95876.25;;;19.64;54.39
28000;BME280;15328;50.860;10.562;2023-07-02T07:19:22;95883.44;;;19.74;53.52
28000;BME280;15328;50.860;10.562;2023-07-02T07:24:22;95878.41;;;19.86;53.28
28000;BME280;15328;50.860;10.562;2023-07-02T07:29:22;95881.63;;;19.88;51.73
28000;BME280;15328;50.860;10.562;2023-07-02T07:34:23;95865.91;;;19.71;51.99
28000;BME280;15328;50.860;10.562;2023-07-02T07:39:23;95866.81;;;19.86;51.93
28000;BME280;15328;50.860;10.562;2023-07-02T07:44:24;95877.94;;;20.03;51.58
28000;BME280;15328;50.860;10.562;2023-07-02T07:49:28;95873.19;;;19.95;50.88
28000;BME280;15328;50.860;10.562;2023-07-02T07:54:29;95877.63;;;19.86;50.43
28000;BME280;15328;50.860;10.562;2023-07-02T07:59:29;95878.09;;;20.12;50.41
28000;BME280;15328;50.860;10.562;2023-07-02T08:04:30;95876.47;;;20.11;50.56
28000;BME280;15328;50.860;10.562;2023-07-02T08:09:30;95886.63;;;20.19;50.15
28000;BME280;15328;50.860;10.562;2023-07-02T08:14:30;95904.84;;;20.27;50.23
28000;BME280;15328;50.860;10.562;2023-07-02T08:19:31;95901.09;;;20.47;49.64
28000;BME280;15328;50.860;10.562;2023-07-02T08:24:31;95893.69;;;20.71;48.96
28000;BME280;15328;50.860;10.562;2023-07-02T08:29:31;95892.09;;;20.70;47.79
28000;BME280;15328;50.860;10.562;2023-07-02T08:34:32;95910.19;;;20.70;47.69
28000;BME280;15328;50.860;10.562;2023-07-02T08:39:33;95904.41;;;20.76;47.87
28000;BME280;15328;50.860;10.562;2023-07-02T08:44:35;95906.25;;;21.13;47.65
28000;BME280;15328;50.860;10.562;2023-07-02T08:49:36;95930.44;;;21.23;46.54
28000;BME280;15328;50.860;10.562;2023-07-02T08:54:36;95933.63;;;20.93;46.58
28000;BME280;15328;50.860;10.562;2023-07-02T08:59:37;95936.72;;;20.86;46.90
28000;BME280;15328;50.860;10.562;2023-07-02T09:04:37;95942.72;;;20.64;46.53
28000;BME280;15328;50.860;10.562;2023-07-02T09:09:48;95950.94;;;20.73;46.38
28000;BME280;15328;50.860;10.562;2023-07-02T09:15:03;95940.25;;;21.01;46.24
28000;BME280;15328;50.860;10.562;2023-07-02T09:20:07;95952.47;;;21.31;45.46
28000;BME280;15328;50.860;10.562;2023-07-02T09:25:08;95955.31;;;21.39;44.33
28000;BME280;15328;50.860;10.562;2023-07-02T09:30:13;95948.22;;;21.57;43.70
28000;BME280;15328;50.860;10.562;2023-07-02T09:35:15;95951.53;;;21.81;42.72
28000;BME280;15328;50.860;10.562;2023-07-02T09:40:16;95965.59;;;21.97;43.14
28000;BME280;15328;50.860;10.562;2023-07-02T09:45:18;95961.69;;;22.17;42.30
28000;BME280;15328;50.860;10.562;2023-07-02T09:50:19;95950.03;;;22.30;42.38
28000;BME280;15328;50.860;10.562;2023-07-02T09:55:21;95959.28;;;22.65;41.53
28000;BME280;15328;50.860;10.562;2023-07-02T10:00:22;95955.66;;;22.84;41.46
28000;BME280;15328;50.860;10.562;2023-07-02T10:05:32;95958.56;;;23.09;39.81
28000;BME280;15328;50.860;10.562;2023-07-02T10:10:33;95960.06;;;23.24;39.27
28000;BME280;15328;50.860;10.562;2023-07-02T10:15:33;95971.72;;;24.18;39.54
28000;BME280;15328;50.860;10.562;2023-07-02T10:20:39;95967.38;;;25.17;35.36
28000;BME280;15328;50.860;10.562;2023-07-02T10:25:40;95975.38;;;25.48;35.32
28000;BME280;15328;50.860;10.562;2023-07-02T10:30:41;95974.44;;;25.18;34.82
28000;BME280;15328;50.860;10.562;2023-07-02T10:35:51;95980.22;;;25.89;33.43
28000;BME280;15328;50.860;10.562;2023-07-02T10:40:56;95966.84;;;25.67;33.89
28000;BME280;15328;50.860;10.562;2023-07-02T10:45:57;95977.94;;;25.36;33.76
28000;BME280;15328;50.860;10.562;2023-07-02T10:51:11;95966.09;;;25.14;33.88
28000;BME280;15328;50.860;10.562;2023-07-02T10:56:16;95972.66;;;25.31;33.43
28000;BME280;15328;50.860;10.562;2023-07-02T11:06:24;95970.41;;;24.07;34.85
28000;BME280;15328;50.860;10.562;2023-07-02T11:11:24;95970.69;;;23.34;36.24
28000;BME280;15328;50.860;10.562;2023-07-02T11:16:26;95955.91;;;23.71;37.20
28000;BME280;15328;50.860;10.562;2023-07-02T11:21:26;95966.66;;;24.33;35.47
28000;BME280;15328;50.860;10.562;2023-07-02T11:26:37;95984.34;;;24.14;35.19
28000;BME280;15328;50.860;10.562;2023-07-02T11:31:37;95977.28;;;23.64;36.46
28000;BME280;15328;50.860;10.562;2023-07-02T11:36:38;95981.22;;;23.36;36.44
28000;BME280;15328;50.860;10.562;2023-07-02T11:41:43;95967.00;;;23.92;36.97
28000;BME280;15328;50.860;10.562;2023-07-02T11:46:44;95963.66;;;24.44;35.02
28000;BME280;15328;50.860;10.562;2023-07-02T11:51:47;95970.06;;;24.56;34.93
28000;BME280;15328;50.860;10.562;2023-07-02T11:56:48;95970.56;;;24.58;34.67
28000;BME280;15328;50.860;10.562;2023-07-02T12:01:48;95977.44;;;24.56;34.45
28000;BME280;15328;50.860;10.562;2023-07-02T12:06:49;95976.47;;;24.60;33.87
28000;BME280;15328;50.860;10.562;2023-07-02T12:11:49;95969.13;;;24.61;34.63
28000;BME280;15328;50.860;10.562;2023-07-02T12:16:50;95971.84;;;24.87;33.92
28000;BME280;15328;50.860;10.562;2023-07-02T12:21:50;95960.16;;;24.86;32.45
28000;BME280;15328;50.860;10.562;2023-07-02T12:26:50;95974.75;;;25.16;32.16
28000;BME280;15328;50.860;10.562;2023-07-02T12:31:51;95981.72;;;25.61;31.55
28000;BME280;15328;50.860;10.562;2023-07-02T12:36:51;95976.97;;;25.40;29.71
28000;BME280;15328;50.860;10.562;2023-07-02T12:41:52;95982.88;;;24.90;31.09
28000;BME280;15328;50.860;10.562;2023-07-02T12:46:52;95967.38;;;24.74;30.69
28000;BME280;15328;50.860;10.562;2023-07-02T12:51:52;95970.06;;;24.65;32.04
28000;BME280;15328;50.860;10.562;2023-07-02T12:56:53;95978.81;;;24.36;32.42
28000;BME280;15328;50.860;10.562;2023-07-02T13:01:53;95985.47;;;24.13;32.97
28000;BME280;15328;50.860;10.562;2023-07-02T13:06:53;95988.13;;;24.52;33.16
28000;BME280;15328;50.860;10.562;2023-07-02T13:11:53;95987.34;;;24.60;33.24
28000;BME280;15328;50.860;10.562;2023-07-02T13:16:54;95995.97;;;24.62;33.40
28000;BME280;15328;50.860;10.562;2023-07-02T13:21:54;95981.28;;;24.81;33.19
28000;BME280;15328;50.860;10.562;2023-07-02T13:26:55;95982.91;;;24.82;33.09
28000;BME280;15328;50.860;10.562;2023-07-02T13:31:55;95986.09;;;24.67;33.32
28000;BME280;15328;50.860;10.562;2023-07-02T13:36:55;95980.50;;;24.98;34.27
28000;BME280;15328;50.860;10.562;2023-07-02T13:41:56;95994.63;;;25.00;33.76
28000;BME280;15328;50.860;10.562;2023-07-02T13:46:56;95994.22;;;24.58;34.24
28000;BME280;15328;50.860;10.562;2023-07-02T13:51:57;95998.28;;;24.21;34.14
28000;BME280;15328;50.860;10.562;2023-07-02T13:56:57;96003.13;;;24.32;35.02
28000;BME280;15328;50.860;10.562;2023-07-02T14:01:58;95992.28;;;24.50;34.30
28000;BME280;15328;50.860;10.562;2023-07-02T14:06:59;96002.84;;;24.43;34.45
28000;BME280;15328;50.860;10.562;2023-07-02T14:11:59;96000.09;;;24.34;34.42
28000;BME280;15328;50.860;10.562;2023-07-02T14:16:59;96001.09;;;24.07;35.01
28000;BME280;15328;50.860;10.562;2023-07-02T14:22:00;95987.72;;;24.19;35.62
28000;BME280;15328;50.860;10.562;2023-07-02T14:27:00;96000.78;;;24.09;34.31
28000;BME280;15328;50.860;10.562;2023-07-02T14:32:01;96000.47;;;23.79;35.05
28000;BME280;15328;50.860;10.562;2023-07-02T14:37:02;96006.50;;;23.67;35.62
28000;BME280;15328;50.860;10.562;2023-07-02T14:42:03;96009.19;;;23.59;36.09
28000;BME280;15328;50.860;10.562;2023-07-02T14:47:06;96006.22;;;23.55;36.34
28000;BME280;15328;50.860;10.562;2023-07-02T14:52:06;96010.34;;;23.66;36.46
28000;BME280;15328;50.860;10.562;2023-07-02T14:57:07;96000.13;;;23.72;36.11
28000;BME280;15328;50.860;10.562;2023-07-02T15:02:07;95999.50;;;23.75;36.60
28000;BME280;15328;50.860;10.562;2023-07-02T15:07:07;95998.94;;;23.87;36.67
28000;BME280;15328;50.860;10.562;2023-07-02T15:12:08;95995.06;;;23.79;35.85
28000;BME280;15328;50.860;10.562;2023-07-02T15:17:08;96004.47;;;23.82;36.69
28000;BME280;15328;50.860;10.562;2023-07-02T15:22:08;96005.41;;;23.68;35.95
28000;BME280;15328;50.860;10.562;2023-07-02T15:27:09;95992.41;;;23.57;35.15
28000;BME280;15328;50.860;10.562;2023-07-02T15:32:09;95993.25;;;23.66;34.90
28000;BME280;15328;50.860;10.562;2023-07-02T15:37:09;95982.13;;;23.54;34.45
28000;BME280;15328;50.860;10.562;2023-07-02T15:42:10;95990.38;;;23.49;34.40
28000;BME280;15328;50.860;10.562;2023-07-02T15:47:10;95990.22;;;23.23;34.74
28000;BME280;15328;50.860;10.562;2023-07-02T15:52:11;95990.53;;;23.21;35.21
28000;BME280;15328;50.860;10.562;2023-07-02T15:57:11;95992.75;;;23.19;34.88
28000;BME280;15328;50.860;10.562;2023-07-02T16:02:12;96001.28;;;23.04;35.38
28000;BME280;15328;50.860;10.562;2023-07-02T16:07:12;96010.94;;;22.96;36.00
28000;BME280;15328;50.860;10.562;2023-07-02T16:12:13;96003.28;;;22.98;36.27
28000;BME280;15328;50.860;10.562;2023-07-02T16:17:14;96008.94;;;22.88;36.57
28000;BME280;15328;50.860;10.562;2023-07-02T16:22:14;96002.31;;;22.80;35.73
28000;BME280;15328;50.860;10.562;2023-07-02T16:27:15;96002.41;;;22.89;36.15
28000;BME280;15328;50.860;10.562;2023-07-02T16:32:15;95992.50;;;22.85;35.91
28000;BME280;15328;50.860;10.562;2023-07-02T16:37:18;95988.66;;;22.72;36.10
28000;BME280;15328;50.860;10.562;2023-07-02T16:42:18;95991.81;;;22.65;34.31
28000;BME280;15328;50.860;10.562;2023-07-02T16:47:18;96001.28;;;22.54;34.18
28000;BME280;15328;50.860;10.562;2023-07-02T16:52:19;96001.78;;;22.56;34.53
28000;BME280;15328;50.860;10.562;2023-07-02T16:57:20;96009.09;;;22.56;34.97
28000;BME280;15328;50.860;10.562;2023-07-02T17:02:20;96009.41;;;22.54;35.14
28000;BME280;15328;50.860;10.562;2023-07-02T17:07:21;96005.22;;;22.48;34.73
28000;BME280;15328;50.860;10.562;2023-07-02T17:12:21;96011.22;;;22.45;35.10
28000;BME280;15328;50.860;10.562;2023-07-02T17:17:24;96011.94;;;22.37;34.86
28000;BME280;15328;50.860;10.562;2023-07-02T17:22:29;96012.53;;;22.34;34.77
28000;BME280;15328;50.860;10.562;2023-07-02T17:27:30;96016.97;;;22.30;34.99
28000;BME280;15328;50.860;10.562;2023-07-02T17:32:32;96021.25;;;22.17;35.13
28000;BME280;15328;50.860;10.562;2023-07-02T17:37:32;96020.88;;;22.10;35.66
28000;BME280;15328;50.860;10.562;2023-07-02T17:42:34;96021.25;;;22.03;35.40
28000;BME280;15328;50.860;10.562;2023-07-02T17:47:34;96011.03;;;22.00;35.65
28000;BME280;15328;50.860;10.562;2023-07-02T17:52:36;96026.47;;;22.00;37.68
28000;BME280;15328;50.860;10.562;2023-07-02T17:57:37;96031.69;;;21.96;37.72
28000;BME280;15328;50.860;10.562;2023-07-02T18:02:38;96028.53;;;21.89;37.61
28000;BME280;15328;50.860;10.562;2023-07-02T18:07:39;96031.75;;;21.77;37.84
28000;BME280;15328;50.860;10.562;2023-07-02T18:12:39;96028.44;;;21.67;37.13
28000;BME280;15328;50.860;10.562;2023-07-02T18:17:40;96026.88;;;21.60;37.65
28000;BME280;15328;50.860;10.562;2023-07-02T18:22:40;96036.19;;;21.54;38.57
28000;BME280;15328;50.860;10.562;2023-07-02T18:27:41;96034.09;;;21.51;37.75
28000;BME280;15328;50.860;10.562;2023-07-02T18:32:41;96038.78;;;21.46;38.73
28000;BME280;15328;50.860;10.562;2023-07-02T18:37:42;96045.91;;;21.42;39.32
28000;BME280;15328;50.860;10.562;2023-07-02T18:42:42;96048.97;;;21.35;39.91
28000;BME280;15328;50.860;10.562;2023-07-02T18:47:43;96045.09;;;21.22;40.53
28000;BME280;15328;50.860;10.562;2023-07-02T18:52:44;96045.31;;;21.07;39.41
28000;BME280;15328;50.860;10.562;2023-07-02T18:57:45;96044.16;;;20.94;39.46
28000;BME280;15328;50.860;10.562;2023-07-02T19:02:48;96049.13;;;20.87;40.06
28000;BME280;15328;50.860;10.562;2023-07-02T19:07:49;96047.34;;;20.78;40.40
28000;BME280;15328;50.860;10.562;2023-07-02T19:12:49;96044.59;;;20.64;39.99
28000;BME280;15328;50.860;10.562;2023-07-02T19:17:50;96054.50;;;20.50;40.91
28000;BME280;15328;50.860;10.562;2023-07-02T19:22:50;96056.50;;;20.39;41.61
28000;BME280;15328;50.860;10.562;2023-07-02T19:27:51;96060.16;;;20.24;42.01
28000;BME280;15328;50.860;10.562;2023-07-02T19:32:52;96066.84;;;20.08;42.47
28000;BME280;15328;50.860;10.562;2023-07-02T19:37:53;96056.47;;;19.91;42.73
28000;BME280;15328;50.860;10.562;2023-07-02T19:42:53;96061.25;;;19.75;43.39
28000;BME280;15328;50.860;10.562;2023-07-02T19:47:53;96068.13;;;19.58;43.78
28000;BME280;15328;50.860;10.562;2023-07-02T19:52:55;96069.31;;;19.41;44.31
28000;BME280;15328;50.860;10.562;2023-07-02T19:57:55;96067.03;;;19.25;44.45
28000;BME280;15328;50.860;10.562;2023-07-02T20:02:56;96079.81;;;19.09;45.14
28000;BME280;15328;50.860;10.562;2023-07-02T20:07:56;96085.28;;;18.99;45.33
28000;BME280;15328;50.860;10.562;2023-07-02T20:12:56;96077.78;;;18.86;45.55
28000;BME280;15328;50.860;10.562;2023-07-02T20:17:58;96080.84;;;18.74;45.98
28000;BME280;15328;50.860;10.562;2023-07-02T20:22:58;96081.16;;;18.62;46.57
28000;BME280;15328;50.860;10.562;2023-07-02T20:28:00;96075.06;;;18.36;46.54
28000;BME280;15328;50.860;10.562;2023-07-02T20:33:00;96078.34;;;18.18;47.24
28000;BME280;15328;50.860;10.562;2023-07-02T20:38:01;96076.78;;;18.02;47.57
28000;BME280;15328;50.860;10.562;2023-07-02T20:43:01;96086.47;;;17.92;48.09
28000;BME280;15328;50.860;10.562;2023-07-02T20:48:02;96084.63;;;17.83;47.95
28000;BME280;15328;50.860;10.562;2023-07-02T20:53:03;96078.16;;;17.79;47.98
28000;BME280;15328;50.860;10.562;2023-07-02T20:58:04;96080.59;;;17.70;48.26
28000;BME280;15328;50.860;10.562;2023-07-02T21:03:05;96084.34;;;17.59;48.50
28000;BME280;15328;50.860;10.562;2023-07-02T21:08:05;96080.31;;;17.56;49.06
28000;BME280;15328;50.860;10.562;2023-07-02T21:13:06;96085.97;;;17.60;48.64
28000;BME280;15328;50.860;10.562;2023-07-02T21:18:06;96087.56;;;17.46;48.54
28000;BME280;15328;50.860;10.562;2023-07-02T21:23:06;96075.75;;;17.37;48.73
28000;BME280;15328;50.860;10.562;2023-07-02T21:28:06;96089.19;;;17.37;48.64
28000;BME280;15328;50.860;10.562;2023-07-02T21:33:07;96084.09;;;17.30;49.54
28000;BME280;15328;50.860;10.562;2023-07-02T21:38:07;96084.38;;;17.28;49.51
28000;BME280;15328;50.860;10.562;2023-07-02T21:43:08;96087.06;;;17.28;49.20
28000;BME280;15328;50.860;10.562;2023-07-02T21:48:08;96086.75;;;17.20;49.83
28000;BME280;15328;50.860;10.562;2023-07-02T21:53:08;96088.63;;;17.14;49.79
28000;BME280;15328;50.860;10.562;2023-07-02T21:58:09;96080.03;;;17.12;49.96
28000;BME280;15328;50.860;10.562;2023-07-02T22:03:09;96080.56;;;17.09;50.50
28000;BME280;15328;50.860;10.562;2023-07-02T22:08:10;96075.75;;;17.01;50.86
28000;BME280;15328;50.860;10.562;2023-07-02T22:13:10;96078.16;;;17.03;50.89
28000;BME280;15328;50.860;10.562;2023-07-02T22:18:11;96083.25;;;17.14;50.53
28000;BME280;15328;50.860;10.562;2023-07-02T22:23:11;96076.28;;;17.13;50.40
28000;BME280;15328;50.860;10.562;2023-07-02T22:28:12;96071.97;;;17.12;50.19
28000;BME280;15328;50.860;10.562;2023-07-02T22:33:12;96074.13;;;17.15;50.65
28000;BME280;15328;50.860;10.562;2023-07-02T22:38:12;96068.78;;;17.36;49.95
28000;BME280;15328;50.860;10.562;2023-07-02T22:43:13;96053.97;;;17.43;50.15
28000;BME280;15328;50.860;10.562;2023-07-02T22:48:13;96062.56;;;17.45;49.95
28000;BME280;15328;50.860;10.562;2023-07-02T22:53:14;96056.91;;;17.52;49.58
28000;BME280;15328;50.860;10.562;2023-07-02T22:58:16;96053.44;;;17.61;49.75
28000;BME280;15328;50.860;10.562;2023-07-02T23:03:16;96046.41;;;17.66;49.35
28000;BME280;15328;50.860;10.562;2023-07-02T23:08:18;96041.34;;;17.69;49.54
28000;BME280;15328;50.860;10.562;2023-07-02T23:13:18;96039.72;;;17.73;49.72
28000;BME280;15328;50.860;10.562;2023-07-02T23:18:18;96034.31;;;17.78;49.43
28000;BME280;15328;50.860;10.562;2023-07-02T23:23:19;96023.03;;;17.81;49.72
28000;BME280;15328;50.860;10.562;2023-07-02T23:28:19;96017.88;;;17.90;49.79
28000;BME280;15328;50.860;10.562;2023-07-02T23:33:21;96014.91;;;17.91;50.35
28000;BME280;15328;50.860;10.562;2023-07-02T23:38:21;96021.38;;;17.96;49.49
28000;BME280;15328;50.860;10.562;2023-07-02T23:43:22;96012.22;;;17.91;49.92
28000;BME280;15328;50.860;10.562;2023-07-02T23:48:23;96017.06;;;17.95;50.08
28000;BME280;15328;50.860;10.562;2023-07-02T23:53:23;96009.84;;;17.85;49.77
28000;BME280;15328;50.860;10.562;2023-07-02T23:58:24;96009.31;;;17.83;49.63
